sensor_id;sensor_type;location;lat;lon;timestamp;pressure;altitude;pressure_sealevel;temperature;humidity
77110;BME280;66062;52.464;16.922;2024-03-29T00:00:41;98938.50;;;9.24;72.37
77110;BME280;66062;52.464;16.922;2024-03-29T00:03:07;98941.16;;;9.24;72.04
77110;BME280;66062;52.464;16.922;2024-03-29T00:05:33;98948.16;;;9.17;72.69
77110;BME280;66062;52.464;16.922;2024-03-29T00:07:59;98958.44;;;9.20;71.81
77110;BME280;66062;52.464;16.922;2024-03-29T00:10:25;98957.28;;;9.15;72.55
77110;BME280;66062;52.464;16.922;2024-03-29T00:12:50;98960.31;;;9.12;72.82
77110;BME280;66062;52.464;16.922;2024-03-29T00:15:16;98963.44;;;9.15;72.12
77110;BME280;66062;52.464;16.922;2024-03-29T00:17:41;98966.81;;;9.09;72.02
77110;BME280;66062;52.464;16.922;2024-03-29T00:20:07;98969.44;;;9.17;71.87
77110;BME280;66062;52.464;16.922;2024-03-29T00:22:33;98977.13;;;9.12;73.04
77110;BME280;66062;52.464;16.922;2024-03-29T00:24:59;98982.78;;;9.09;72.78
77110;BME280;66062;52.464;16.922;2024-03-29T00:27:24;98981.78;;;9.02;72.45
77110;BME280;66062;52.464;16.922;2024-03-29T00:29:51;98996.25;;;8.99;72.73
77110;BME280;66062;52.464;16.922;2024-03-29T00:32:19;99000.94;;;8.97;72.87
77110;BME280;66062;52.464;16.922;2024-03-29T00:34:44;99009.91;;;8.96;73.11
77110;BME280;66062;52.464;16.922;2024-03-29T00:37:11;99009.56;;;8.99;73.34
77110;BME280;66062;52.464;16.922;2024-03-29T00:39:36;99015.06;;;8.90;73.60
77110;BME280;66062;52.464;16.922;2024-03-29T00:42:01;99033.53;;;8.91;73.99
77110;BME280;66062;52.464;16.922;2024-03-29T00:44:27;99028.03;;;8.85;74.79
77110;BME280;66062;52.464;16.922;2024-03-29T00:46:53;99039.38;;;8.71;74.84
77110;BME280;66062;52.464;16.922;2024-03-29T00:49:19;99050.50;;;8.74;75.37
77110;BME280;66062;52.464;16.922;2024-03-29T00:51:44;99055.66;;;8.76;74.93
77110;BME280;66062;52.464;16.922;2024-03-29T00:54:10;99053.66;;;8.70;75.45
77110;BME280;66062;52.464;16.922;2024-03-29T00:56:35;99057.16;;;8.62;75.62
77110;BME280;66062;52.464;16.922;2024-03-29T00:59:00;99078.09;;;8.57;76.10
77110;BME280;66062;52.464;16.922;2024-03-29T01:01:26;99081.91;;;8.63;76.00
77110;BME280;66062;52.464;16.922;2024-03-29T01:03:51;99076.25;;;8.74;76.10
77110;BME280;66062;52.464;16.922;2024-03-29T01:06:17;99075.13;;;8.68;75.75
77110;BME280;66062;52.464;16.922;2024-03-29T01:08:42;99091.53;;;8.64;76.18
77110;BME280;66062;52.464;16.922;2024-03-29T01:11:08;99090.06;;;8.69;76.45
77110;BME280;66062;52.464;16.922;2024-03-29T01:13:33;99097.34;;;8.59;76.97
77110;BME280;66062;52.464;16.922;2024-03-29T01:15:59;99105.00;;;8.54;77.06
77110;BME280;66062;52.464;16.922;2024-03-29T01:18:24;99104.38;;;8.68;76.50
77110;BME280;66062;52.464;16.922;2024-03-29T01:20:50;99102.00;;;8.49;77.88
77110;BME280;66062;52.464;16.922;2024-03-29T01:23:15;99106.53;;;8.81;76.33
77110;BME280;66062;52.464;16.922;2024-03-29T01:25:40;99112.16;;;8.70;76.42
77110;BME280;66062;52.464;16.922;2024-03-29T01:28:06;99113.50;;;8.66;77.14
77110;BME280;66062;52.464;16.922;2024-03-29T01:30:31;99108.84;;;8.68;77.40
77110;BME280;66062;52.464;16.922;2024-03-29T01:32:57;99127.81;;;8.81;76.62
77110;BME280;66062;52.464;16.922;2024-03-29T01:35:23;99126.31;;;8.86;76.13
77110;BME280;66062;52.464;16.922;2024-03-29T01:37:48;99134.97;;;8.88;75.55
77110;BME280;66062;52.464;16.922;2024-03-29T01:40:13;99146.09;;;9.00;75.95
77110;BME280;66062;52.464;16.922;2024-03-29T01:42:39;99146.59;;;8.95;76.10
77110;BME280;66062;52.464;16.922;2024-03-29T01:45:05;99147.41;;;8.80;77.09
77110;BME280;66062;52.464;16.922;2024-03-29T01:47:30;99139.47;;;8.88;76.74
77110;BME280;66062;52.464;16.922;2024-03-29T01:49:56;99137.78;;;8.95;75.82
77110;BME280;66062;52.464;16.922;2024-03-29T01:52:22;99138.47;;;9.13;74.73
77110;BME280;66062;52.464;16.922;2024-03-29T01:54:48;99144.28;;;9.09;74.54
77110;BME280;66062;52.464;16.922;2024-03-29T01:57:14;99163.06;;;9.15;75.01
77110;BME280;66062;52.464;16.922;2024-03-29T01:59:42;99163.75;;;9.09;75.00
77110;BME280;66062;52.464;16.922;2024-03-29T02:02:08;99160.59;;;9.14;74.59
77110;BME280;66062;52.464;16.922;2024-03-29T02:04:35;99168.09;;;9.18;74.15
77110;BME280;66062;52.464;16.922;2024-03-29T02:07:02;99178.72;;;9.26;74.07
77110;BME280;66062;52.464;16.922;2024-03-29T02:09:29;99187.69;;;9.25;74.07
77110;BME280;66062;52.464;16.922;2024-03-29T02:11:54;99196.69;;;9.32;74.53
77110;BME280;66062;52.464;16.922;2024-03-29T02:14:20;99204.00;;;9.30;74.86
77110;BME280;66062;52.464;16.922;2024-03-29T02:16:45;99200.34;;;9.31;76.51
77110;BME280;66062;52.464;16.922;2024-03-29T02:19:11;99211.66;;;9.33;77.28
77110;BME280;66062;52.464;16.922;2024-03-29T02:21:42;99204.66;;;9.08;79.53
77110;BME280;66062;52.464;16.922;2024-03-29T02:24:09;99206.47;;;8.91;81.10
77110;BME280;66062;52.464;16.922;2024-03-29T02:26:35;99207.44;;;8.82;81.89
77110;BME280;66062;52.464;16.922;2024-03-29T02:29:07;99212.28;;;8.95;83.79
77110;BME280;66062;52.464;16.922;2024-03-29T02:31:33;99218.25;;;8.89;83.64
77110;BME280;66062;52.464;16.922;2024-03-29T02:33:59;99207.16;;;8.93;84.35
77110;BME280;66062;52.464;16.922;2024-03-29T02:36:24;99202.63;;;8.86;84.30
77110;BME280;66062;52.464;16.922;2024-03-29T02:38:50;99209.44;;;8.72;84.65
77110;BME280;66062;52.464;16.922;2024-03-29T02:41:15;99209.56;;;8.63;84.76
77110;BME280;66062;52.464;16.922;2024-03-29T02:43:40;99212.88;;;8.65;84.96
77110;BME280;66062;52.464;16.922;2024-03-29T02:46:06;99218.69;;;8.60;85.26
77110;BME280;66062;52.464;16.922;2024-03-29T02:48:31;99208.69;;;8.54;85.31
77110;BME280;66062;52.464;16.922;2024-03-29T02:50:56;99226.31;;;8.47;85.28
77110;BME280;66062;52.464;16.922;2024-03-29T02:53:22;99226.94;;;8.41;86.13
77110;BME280;66062;52.464;16.922;2024-03-29T02:55:47;99220.91;;;8.31;86.35
77110;BME280;66062;52.464;16.922;2024-03-29T02:58:12;99217.25;;;8.32;86.18
77110;BME280;66062;52.464;16.922;2024-03-29T03:00:38;99216.34;;;8.23;85.93
77110;BME280;66062;52.464;16.922;2024-03-29T03:03:04;99227.31;;;8.20;86.43
77110;BME280;66062;52.464;16.922;2024-03-29T03:05:29;99222.94;;;8.11;86.50
77110;BME280;66062;52.464;16.922;2024-03-29T03:07:54;99234.56;;;8.10;86.51
77110;BME280;66062;52.464;16.922;2024-03-29T03:10:48;99223.41;;;8.06;86.26
77110;BME280;66062;52.464;16.922;2024-03-29T03:13:26;99215.81;;;8.11;85.22
77110;BME280;66062;52.464;16.922;2024-03-29T03:15:51;99227.03;;;7.97;86.50
77110;BME280;66062;52.464;16.922;2024-03-29T03:18:17;99214.72;;;7.96;85.63
77110;BME280;66062;52.464;16.922;2024-03-29T03:20:50;99224.38;;;7.97;85.29
77110;BME280;66062;52.464;16.922;2024-03-29T03:23:15;99229.47;;;7.91;85.74
77110;BME280;66062;52.464;16.922;2024-03-29T03:25:41;99231.88;;;8.02;85.35
77110;BME280;66062;52.464;16.922;2024-03-29T03:28:06;99227.13;;;7.88;85.73
77110;BME280;66062;52.464;16.922;2024-03-29T03:30:32;99233.25;;;7.88;85.63
77110;BME280;66062;52.464;16.922;2024-03-29T03:32:57;99239.59;;;7.87;85.47
77110;BME280;66062;52.464;16.922;2024-03-29T03:35:22;99236.09;;;7.87;85.05
77110;BME280;66062;52.464;16.922;2024-03-29T03:37:48;99241.88;;;7.82;85.20
77110;BME280;66062;52.464;16.922;2024-03-29T03:40:14;99234.69;;;7.74;85.43
77110;BME280;66062;52.464;16.922;2024-03-29T03:42:39;99231.88;;;7.76;85.03
77110;BME280;66062;52.464;16.922;2024-03-29T03:45:05;99230.25;;;7.83;85.29
77110;BME280;66062;52.464;16.922;2024-03-29T03:47:31;99234.06;;;7.81;85.42
77110;BME280;66062;52.464;16.922;2024-03-29T03:49:56;99232.44;;;7.88;84.50
77110;BME280;66062;52.464;16.922;2024-03-29T03:52:21;99230.41;;;7.82;84.31
77110;BME280;66062;52.464;16.922;2024-03-29T03:54:47;99236.25;;;7.85;83.98
77110;BME280;66062;52.464;16.922;2024-03-29T03:57:12;99235.88;;;7.80;84.33
77110;BME280;66062;52.464;16.922;2024-03-29T03:59:39;99233.72;;;7.84;83.69
77110;BME280;66062;52.464;16.922;2024-03-29T04:02:04;99246.28;;;7.73;84.10
77110;BME280;66062;52.464;16.922;2024-03-29T04:04:29;99253.41;;;7.73;84.14
77110;BME280;66062;52.464;16.922;2024-03-29T04:06:56;99255.41;;;7.71;85.21
77110;BME280;66062;52.464;16.922;2024-03-29T04:09:22;99257.88;;;7.72;84.53
77110;BME280;66062;52.464;16.922;2024-03-29T04:11:48;99252.56;;;7.72;84.05
77110;BME280;66062;52.464;16.922;2024-03-29T04:14:13;99256.84;;;7.65;84.23
77110;BME280;66062;52.464;16.922;2024-03-29T04:16:38;99256.38;;;7.70;84.02
77110;BME280;66062;52.464;16.922;2024-03-29T04:19:04;99259.44;;;7.57;84.50
77110;BME280;66062;52.464;16.922;2024-03-29T04:21:30;99261.09;;;7.58;85.05
77110;BME280;66062;52.464;16.922;2024-03-29T04:23:55;99261.31;;;7.65;84.26
77110;BME280;66062;52.464;16.922;2024-03-29T04:26:21;99273.53;;;7.58;84.94
77110;BME280;66062;52.464;16.922;2024-03-29T04:28:47;99277.03;;;7.58;84.40
77110;BME280;66062;52.464;16.922;2024-03-29T04:31:13;99276.06;;;7.59;84.81
77110;BME280;66062;52.464;16.922;2024-03-29T04:33:38;99278.34;;;7.54;85.23
77110;BME280;66062;52.464;16.922;2024-03-29T04:36:05;99283.13;;;7.51;84.97
77110;BME280;66062;52.464;16.922;2024-03-29T04:38:31;99275.69;;;7.54;84.90
77110;BME280;66062;52.464;16.922;2024-03-29T04:40:58;99265.91;;;7.55;84.97
77110;BME280;66062;52.464;16.922;2024-03-29T04:43:25;99262.63;;;7.61;84.74
77110;BME280;66062;52.464;16.922;2024-03-29T04:46:02;99276.19;;;7.58;85.18
77110;BME280;66062;52.464;16.922;2024-03-29T04:48:30;99271.50;;;7.52;85.33
77110;BME280;66062;52.464;16.922;2024-03-29T04:50:55;99272.25;;;7.62;84.52
77110;BME280;66062;52.464;16.922;2024-03-29T04:53:22;99266.25;;;7.60;85.09
77110;BME280;66062;52.464;16.922;2024-03-29T04:55:53;99269.94;;;7.41;85.21
77110;BME280;66062;52.464;16.922;2024-03-29T04:58:18;99278.03;;;7.40;86.33
77110;BME280;66062;52.464;16.922;2024-03-29T05:00:44;99275.31;;;7.49;85.04
77110;BME280;66062;52.464;16.922;2024-03-29T05:03:09;99278.69;;;7.42;86.07
77110;BME280;66062;52.464;16.922;2024-03-29T05:05:35;99285.84;;;7.59;84.90
77110;BME280;66062;52.464;16.922;2024-03-29T05:08:00;99287.00;;;7.56;84.40
77110;BME280;66062;52.464;16.922;2024-03-29T05:10:26;99285.38;;;7.63;84.22
77110;BME280;66062;52.464;16.922;2024-03-29T05:12:51;99286.91;;;7.48;85.30
77110;BME280;66062;52.464;16.922;2024-03-29T05:15:16;99297.47;;;7.40;85.55
77110;BME280;66062;52.464;16.922;2024-03-29T05:17:42;99301.53;;;7.52;85.15
77110;BME280;66062;52.464;16.922;2024-03-29T05:20:08;99306.59;;;7.63;84.18
77110;BME280;66062;52.464;16.922;2024-03-29T05:22:34;99309.97;;;7.65;84.01
77110;BME280;66062;52.464;16.922;2024-03-29T05:24:59;99318.09;;;7.46;85.20
77110;BME280;66062;52.464;16.922;2024-03-29T05:27:25;99312.75;;;7.64;84.51
77110;BME280;66062;52.464;16.922;2024-03-29T05:29:50;99314.56;;;7.63;83.83
77110;BME280;66062;52.464;16.922;2024-03-29T05:32:15;99303.50;;;7.68;84.09
77110;BME280;66062;52.464;16.922;2024-03-29T05:34:41;99309.25;;;7.81;82.87
77110;BME280;66062;52.464;16.922;2024-03-29T05:37:06;99318.47;;;7.95;81.90
77110;BME280;66062;52.464;16.922;2024-03-29T05:39:33;99320.00;;;7.97;81.74
77110;BME280;66062;52.464;16.922;2024-03-29T05:41:58;99313.53;;;8.00;81.24
77110;BME280;66062;52.464;16.922;2024-03-29T05:44:24;99316.25;;;8.08;81.13
77110;BME280;66062;52.464;16.922;2024-03-29T05:46:49;99308.16;;;8.35;79.58
77110;BME280;66062;52.464;16.922;2024-03-29T05:49:15;99308.13;;;8.61;78.82
77110;BME280;66062;52.464;16.922;2024-03-29T05:51:41;99295.97;;;8.58;77.90
77110;BME280;66062;52.464;16.922;2024-03-29T05:54:07;99297.53;;;8.43;78.80
77110;BME280;66062;52.464;16.922;2024-03-29T05:56:32;99299.81;;;8.64;77.46
77110;BME280;66062;52.464;16.922;2024-03-29T05:58:58;99297.47;;;9.03;75.59
77110;BME280;66062;52.464;16.922;2024-03-29T06:01:23;99283.38;;;10.08;70.82
77110;BME280;66062;52.464;16.922;2024-03-29T06:03:49;99277.13;;;11.18;65.82
77110;BME280;66062;52.464;16.922;2024-03-29T06:06:20;99285.81;;;11.65;63.15
77110;BME280;66062;52.464;16.922;2024-03-29T06:08:49;99279.25;;;12.13;60.65
77110;BME280;66062;52.464;16.922;2024-03-29T06:11:14;99273.38;;;12.98;58.19
77110;BME280;66062;52.464;16.922;2024-03-29T06:13:39;99278.69;;;12.32;59.74
77110;BME280;66062;52.464;16.922;2024-03-29T06:16:28;99281.09;;;12.57;57.40
77110;BME280;66062;52.464;16.922;2024-03-29T06:19:12;99285.78;;;11.20;62.36
77110;BME280;66062;52.464;16.922;2024-03-29T06:21:38;99284.53;;;11.07;64.14
77110;BME280;66062;52.464;16.922;2024-03-29T06:24:10;99305.53;;;11.64;62.55
77110;BME280;66062;52.464;16.922;2024-03-29T06:26:39;99306.94;;;12.50;58.94
77110;BME280;66062;52.464;16.922;2024-03-29T06:29:05;99309.41;;;13.10;56.45
77110;BME280;66062;52.464;16.922;2024-03-29T06:31:31;99315.09;;;13.07;56.20
77110;BME280;66062;52.464;16.922;2024-03-29T06:33:59;99327.75;;;13.85;53.88
77110;BME280;66062;52.464;16.922;2024-03-29T06:36:25;99326.94;;;14.12;52.44
77110;BME280;66062;52.464;16.922;2024-03-29T06:38:51;99320.94;;;14.10;52.00
77110;BME280;66062;52.464;16.922;2024-03-29T06:41:16;99312.34;;;13.93;53.04
77110;BME280;66062;52.464;16.922;2024-03-29T06:43:42;99325.66;;;13.23;55.75
77110;BME280;66062;52.464;16.922;2024-03-29T06:46:14;99317.72;;;13.72;52.95
77110;BME280;66062;52.464;16.922;2024-03-29T06:48:40;99323.75;;;14.02;52.29
77110;BME280;66062;52.464;16.922;2024-03-29T06:51:05;99322.69;;;13.75;53.03
77110;BME280;66062;52.464;16.922;2024-03-29T06:53:31;99312.78;;;15.34;50.14
77110;BME280;66062;52.464;16.922;2024-03-29T06:55:56;99307.63;;;15.39;49.05
77110;BME280;66062;52.464;16.922;2024-03-29T06:58:25;99304.09;;;15.32;47.98
77110;BME280;66062;52.464;16.922;2024-03-29T07:00:50;99310.03;;;16.02;46.64
77110;BME280;66062;52.464;16.922;2024-03-29T07:03:18;99309.34;;;16.85;45.00
77110;BME280;66062;52.464;16.922;2024-03-29T07:05:46;99310.03;;;17.63;43.03
77110;BME280;66062;52.464;16.922;2024-03-29T07:08:12;99322.00;;;16.78;43.55
77110;BME280;66062;52.464;16.922;2024-03-29T07:10:37;99337.53;;;15.71;45.77
77110;BME280;66062;52.464;16.922;2024-03-29T07:13:03;99356.69;;;14.66;49.07
77110;BME280;66062;52.464;16.922;2024-03-29T07:15:28;99346.06;;;12.65;54.11
77110;BME280;66062;52.464;16.922;2024-03-29T07:17:54;99335.97;;;12.23;55.89
77110;BME280;66062;52.464;16.922;2024-03-29T07:20:19;99337.19;;;12.35;55.56
77110;BME280;66062;52.464;16.922;2024-03-29T07:22:44;99331.09;;;13.72;51.58
77110;BME280;66062;52.464;16.922;2024-03-29T07:25:11;99351.66;;;14.07;51.27
77110;BME280;66062;52.464;16.922;2024-03-29T07:27:36;99350.47;;;15.48;47.90
77110;BME280;66062;52.464;16.922;2024-03-29T07:30:03;99359.53;;;15.33;46.86
77110;BME280;66062;52.464;16.922;2024-03-29T07:32:33;99357.94;;;13.36;52.11
77110;BME280;66062;52.464;16.922;2024-03-29T07:34:58;99353.78;;;15.50;46.96
77110;BME280;66062;52.464;16.922;2024-03-29T07:37:25;99355.69;;;13.18;52.15
77110;BME280;66062;52.464;16.922;2024-03-29T07:39:50;99346.22;;;14.22;49.93
77110;BME280;66062;52.464;16.922;2024-03-29T07:42:16;99345.22;;;15.74;46.27
77110;BME280;66062;52.464;16.922;2024-03-29T07:44:42;99351.59;;;15.19;46.58
77110;BME280;66062;52.464;16.922;2024-03-29T07:47:08;99364.19;;;13.58;51.60
77110;BME280;66062;52.464;16.922;2024-03-29T07:49:33;99345.47;;;14.07;50.54
77110;BME280;66062;52.464;16.922;2024-03-29T07:51:59;99340.06;;;15.99;45.48
77110;BME280;66062;52.464;16.922;2024-03-29T07:54:27;99332.50;;;17.50;41.73
77110;BME280;66062;52.464;16.922;2024-03-29T07:56:52;99353.09;;;16.08;43.38
77110;BME280;66062;52.464;16.922;2024-03-29T07:59:21;99361.97;;;14.04;48.54
77110;BME280;66062;52.464;16.922;2024-03-29T08:01:47;99356.47;;;15.50;46.23
77110;BME280;66062;52.464;16.922;2024-03-29T08:04:12;99375.31;;;13.40;49.88
77110;BME280;66062;52.464;16.922;2024-03-29T08:06:37;99369.69;;;16.38;44.25
77110;BME280;66062;52.464;16.922;2024-03-29T08:09:03;99360.41;;;17.25;41.48
77110;BME280;66062;52.464;16.922;2024-03-29T08:11:28;99384.50;;;14.52;46.38
77110;BME280;66062;52.464;16.922;2024-03-29T08:13:54;99380.41;;;15.92;44.13
77110;BME280;66062;52.464;16.922;2024-03-29T08:16:19;99368.34;;;17.58;41.01
77110;BME280;66062;52.464;16.922;2024-03-29T08:18:48;99355.56;;;18.41;39.16
77110;BME280;66062;52.464;16.922;2024-03-29T08:21:14;99360.81;;;19.03;37.51
77110;BME280;66062;52.464;16.922;2024-03-29T08:23:40;99371.97;;;16.15;42.34
77110;BME280;66062;52.464;16.922;2024-03-29T08:26:05;99373.78;;;16.87;41.82
77110;BME280;66062;52.464;16.922;2024-03-29T08:28:31;99363.19;;;19.11;38.00
77110;BME280;66062;52.464;16.922;2024-03-29T08:31:05;99372.44;;;20.30;34.92
77110;BME280;66062;52.464;16.922;2024-03-29T08:33:32;99380.38;;;21.01;33.80
77110;BME280;66062;52.464;16.922;2024-03-29T08:35:58;99394.44;;;19.80;34.21
77110;BME280;66062;52.464;16.922;2024-03-29T08:38:23;99394.78;;;19.54;35.07
77110;BME280;66062;52.464;16.922;2024-03-29T08:40:50;99405.91;;;18.35;37.96
77110;BME280;66062;52.464;16.922;2024-03-29T08:43:16;99403.97;;;18.42;38.39
77110;BME280;66062;52.464;16.922;2024-03-29T08:45:43;99403.97;;;18.42;38.39
77110;BME280;66062;52.464;16.922;2024-03-29T08:48:09;99407.50;;;19.10;36.15
77110;BME280;66062;52.464;16.922;2024-03-29T08:50:35;99406.69;;;18.11;37.69
77110;BME280;66062;52.464;16.922;2024-03-29T08:53:01;99433.50;;;16.77;40.37
77110;BME280;66062;52.464;16.922;2024-03-29T08:55:29;99405.44;;;15.79;43.08
77110;BME280;66062;52.464;16.922;2024-03-29T08:57:54;99386.97;;;15.63;43.46
77110;BME280;66062;52.464;16.922;2024-03-29T09:00:20;99386.88;;;16.37;41.63
77110;BME280;66062;52.464;16.922;2024-03-29T09:02:48;99392.31;;;17.41;39.49
77110;BME280;66062;52.464;16.922;2024-03-29T09:05:14;99391.97;;;18.07;38.14
77110;BME280;66062;52.464;16.922;2024-03-29T09:07:39;99402.34;;;18.10;38.04
77110;BME280;66062;52.464;16.922;2024-03-29T09:10:07;99400.50;;;18.85;36.73
77110;BME280;66062;52.464;16.922;2024-03-29T09:12:32;99397.75;;;19.28;35.88
77110;BME280;66062;52.464;16.922;2024-03-29T09:14:58;99403.16;;;20.24;33.88
77110;BME280;66062;52.464;16.922;2024-03-29T09:17:23;99407.97;;;20.22;33.72
77110;BME280;66062;52.464;16.922;2024-03-29T09:19:52;99403.91;;;18.55;36.32
77110;BME280;66062;52.464;16.922;2024-03-29T09:22:18;99421.44;;;18.08;37.74
77110;BME280;66062;52.464;16.922;2024-03-29T09:24:44;99417.81;;;18.52;37.04
77110;BME280;66062;52.464;16.922;2024-03-29T09:27:09;99424.75;;;17.15;38.92
77110;BME280;66062;52.464;16.922;2024-03-29T09:29:36;99414.34;;;17.82;37.37
77110;BME280;66062;52.464;16.922;2024-03-29T09:32:02;99419.41;;;19.09;35.91
77110;BME280;66062;52.464;16.922;2024-03-29T09:34:28;99411.75;;;18.01;37.24
77110;BME280;66062;52.464;16.922;2024-03-29T09:36:53;99415.25;;;20.10;35.13
77110;BME280;66062;52.464;16.922;2024-03-29T09:39:19;99417.97;;;17.63;36.53
77110;BME280;66062;52.464;16.922;2024-03-29T09:41:45;99403.50;;;18.76;35.00
77110;BME280;66062;52.464;16.922;2024-03-29T09:44:11;99400.31;;;20.83;31.56
77110;BME280;66062;52.464;16.922;2024-03-29T09:46:37;99413.13;;;21.58;31.38
77110;BME280;66062;52.464;16.922;2024-03-29T09:49:06;99398.56;;;23.42;28.25
77110;BME280;66062;52.464;16.922;2024-03-29T09:51:32;99408.22;;;23.12;27.79
77110;BME280;66062;52.464;16.922;2024-03-29T09:54:00;99406.72;;;22.21;29.74
77110;BME280;66062;52.464;16.922;2024-03-29T09:56:26;99399.75;;;22.25;29.04
77110;BME280;66062;52.464;16.922;2024-03-29T09:58:52;99390.78;;;20.81;30.77
77110;BME280;66062;52.464;16.922;2024-03-29T10:01:18;99375.56;;;21.55;28.65
77110;BME280;66062;52.464;16.922;2024-03-29T10:03:47;99379.09;;;21.67;28.15
77110;BME280;66062;52.464;16.922;2024-03-29T10:06:13;99364.00;;;21.88;28.60
77110;BME280;66062;52.464;16.922;2024-03-29T10:08:40;99373.38;;;23.52;26.96
77110;BME280;66062;52.464;16.922;2024-03-29T10:11:05;99379.88;;;23.95;26.60
77110;BME280;66062;52.464;16.922;2024-03-29T10:13:31;99407.28;;;22.06;27.46
77110;BME280;66062;52.464;16.922;2024-03-29T10:15:56;99389.22;;;21.71;29.25
77110;BME280;66062;52.464;16.922;2024-03-29T10:18:25;99396.91;;;20.65;30.03
77110;BME280;66062;52.464;16.922;2024-03-29T10:21:02;99388.59;;;21.81;28.08
77110;BME280;66062;52.464;16.922;2024-03-29T10:23:28;99388.97;;;22.30;27.32
77110;BME280;66062;52.464;16.922;2024-03-29T10:25:54;99394.66;;;20.62;29.89
77110;BME280;66062;52.464;16.922;2024-03-29T10:28:20;99383.41;;;21.40;28.69
77110;BME280;66062;52.464;16.922;2024-03-29T10:30:45;99378.59;;;19.95;31.61
77110;BME280;66062;52.464;16.922;2024-03-29T10:33:17;99378.34;;;21.43;28.89
77110;BME280;66062;52.464;16.922;2024-03-29T10:35:44;99380.84;;;19.69;29.51
77110;BME280;66062;52.464;16.922;2024-03-29T10:38:13;99364.53;;;20.28;29.45
77110;BME280;66062;52.464;16.922;2024-03-29T10:40:39;99373.06;;;20.43;29.28
77110;BME280;66062;52.464;16.922;2024-03-29T10:43:16;99373.66;;;21.04;29.49
77110;BME280;66062;52.464;16.922;2024-03-29T10:45:44;99369.31;;;20.56;29.73
77110;BME280;66062;52.464;16.922;2024-03-29T10:48:10;99372.03;;;20.79;29.12
77110;BME280;66062;52.464;16.922;2024-03-29T10:50:39;99403.00;;;20.07;30.44
77110;BME280;66062;52.464;16.922;2024-03-29T10:53:08;99382.03;;;18.32;33.32
77110;BME280;66062;52.464;16.922;2024-03-29T10:55:35;99390.84;;;19.13;32.02
77110;BME280;66062;52.464;16.922;2024-03-29T10:58:03;99380.53;;;20.18;31.10
77110;BME280;66062;52.464;16.922;2024-03-29T11:00:31;99381.81;;;19.74;30.71
77110;BME280;66062;52.464;16.922;2024-03-29T11:05:32;99371.00;;;20.27;29.71
77110;BME280;66062;52.464;16.922;2024-03-29T11:08:01;99378.94;;;21.33;28.67
77110;BME280;66062;52.464;16.922;2024-03-29T11:10:40;99384.47;;;21.79;26.85
77110;BME280;66062;52.464;16.922;2024-03-29T11:15:52;99382.88;;;20.91;28.08
77110;BME280;66062;52.464;16.922;2024-03-29T11:18:19;99373.63;;;22.40;26.83
77110;BME280;66062;52.464;16.922;2024-03-29T11:20:48;99370.66;;;23.52;25.77
77110;BME280;66062;52.464;16.922;2024-03-29T11:23:18;99365.72;;;24.56;25.04
77110;BME280;66062;52.464;16.922;2024-03-29T11:25:48;99370.09;;;23.99;24.49
77110;BME280;66062;52.464;16.922;2024-03-29T11:28:22;99364.69;;;22.73;25.62
77110;BME280;66062;52.464;16.922;2024-03-29T11:30:49;99370.72;;;21.85;27.03
77110;BME280;66062;52.464;16.922;2024-03-29T11:33:29;99364.78;;;19.19;31.37
77110;BME280;66062;52.464;16.922;2024-03-29T11:35:55;99371.25;;;19.54;30.76
77110;BME280;66062;52.464;16.922;2024-03-29T11:38:21;99367.47;;;19.37;30.84
77110;BME280;66062;52.464;16.922;2024-03-29T11:41:06;99382.84;;;19.73;30.72
77110;BME280;66062;52.464;16.922;2024-03-29T11:43:33;99364.25;;;20.60;29.82
77110;BME280;66062;52.464;16.922;2024-03-29T11:46:02;99363.22;;;21.47;27.95
77110;BME280;66062;52.464;16.922;2024-03-29T11:48:29;99359.19;;;19.32;31.54
77110;BME280;66062;52.464;16.922;2024-03-29T11:50:57;99366.84;;;20.66;29.97
77110;BME280;66062;52.464;16.922;2024-03-29T11:53:22;99354.91;;;20.79;29.63
77110;BME280;66062;52.464;16.922;2024-03-29T11:55:48;99350.31;;;20.91;29.29
77110;BME280;66062;52.464;16.922;2024-03-29T11:58:23;99350.28;;;19.91;30.03
77110;BME280;66062;52.464;16.922;2024-03-29T12:00:50;99351.97;;;20.80;29.77
77110;BME280;66062;52.464;16.922;2024-03-29T12:03:17;99357.59;;;21.25;29.25
77110;BME280;66062;52.464;16.922;2024-03-29T12:05:42;99346.09;;;21.75;28.46
77110;BME280;66062;52.464;16.922;2024-03-29T12:08:09;99354.81;;;20.51;29.53
77110;BME280;66062;52.464;16.922;2024-03-29T12:10:36;99355.91;;;18.94;31.35
77110;BME280;66062;52.464;16.922;2024-03-29T12:13:08;99355.91;;;17.94;33.03
77110;BME280;66062;52.464;16.922;2024-03-29T12:15:34;99349.91;;;18.73;31.96
77110;BME280;66062;52.464;16.922;2024-03-29T12:18:01;99356.97;;;19.11;31.17
77110;BME280;66062;52.464;16.922;2024-03-29T12:20:48;99345.94;;;18.94;31.77
77110;BME280;66062;52.464;16.922;2024-03-29T12:23:20;99342.16;;;19.13;31.63
77110;BME280;66062;52.464;16.922;2024-03-29T12:25:48;99330.38;;;19.44;30.86
77110;BME280;66062;52.464;16.922;2024-03-29T12:28:15;99321.84;;;20.00;29.70
77110;BME280;66062;52.464;16.922;2024-03-29T12:30:42;99327.75;;;20.09;29.05
77110;BME280;66062;52.464;16.922;2024-03-29T12:33:14;99337.66;;;20.15;29.20
77110;BME280;66062;52.464;16.922;2024-03-29T12:35:44;99336.19;;;20.77;27.76
77110;BME280;66062;52.464;16.922;2024-03-29T12:38:12;99341.09;;;18.96;29.23
77110;BME280;66062;52.464;16.922;2024-03-29T12:40:38;99336.22;;;18.68;30.28
77110;BME280;66062;52.464;16.922;2024-03-29T12:43:05;99339.84;;;20.06;28.18
77110;BME280;66062;52.464;16.922;2024-03-29T12:45:32;99327.69;;;20.39;27.87
77110;BME280;66062;52.464;16.922;2024-03-29T12:47:58;99324.50;;;19.11;28.89
77110;BME280;66062;52.464;16.922;2024-03-29T12:50:28;99335.19;;;21.07;28.32
77110;BME280;66062;52.464;16.922;2024-03-29T12:52:55;99337.25;;;21.40;27.23
77110;BME280;66062;52.464;16.922;2024-03-29T12:55:23;99328.84;;;20.78;27.82
77110;BME280;66062;52.464;16.922;2024-03-29T12:57:50;99323.22;;;21.43;27.03